Time;durP1;ratioP1;P1;durP2;ratioP2;P2;SDS_P1;SDS_P2;PMS_P1;PMS_P2;Temp;Humidity;BMP_temperature;BMP_pressure;BME280_temperature;BME280_humidity;BME280_pressure;Samples;Min_cycle;Max_cycle;Signal;HPM_P1;HPM_P2
2023/02/01 00:01:12;;;;;;;23.80;12.77;;;5.50;99.90;;;;;;5026713;28;20045;-67
2023/02/01 00:03:38;;;;;;;18.80;12.00;;;5.50;99.90;;;;;;5026735;28;20030;-66
2023/02/01 00:06:04;;;;;;;30.03;13.53;;;5.50;99.90;;;;;;5026687;28;20171;-66
2023/02/01 00:08:30;;;;;;;24.15;13.50;;;5.40;99.90;;;;;;5026621;28;20418;-67
2023/02/01 00:11:03;;;;;;;24.90;13.03;;;5.50;99.90;;;;;;5026745;28;20037;-67
2023/02/01 00:13:30;;;;;;;28.10;13.18;;;5.40;99.90;;;;;;5026956;28;20017;-67
2023/02/01 00:16:07;;;;;;;26.38;13.07;;;5.40;99.90;;;;;;5025399;28;20028;-67
2023/02/01 00:18:33;;;;;;;23.63;12.85;;;5.40;99.90;;;;;;5026653;28;20447;-66
2023/02/01 00:20:58;;;;;;;26.05;12.75;;;5.30;99.90;;;;;;5026352;28;20078;-67
2023/02/01 00:23:24;;;;;;;26.00;13.90;;;5.40;99.90;;;;;;5026781;28;20072;-67
2023/02/01 00:25:50;;;;;;;31.13;14.83;;;5.50;99.90;;;;;;5008963;28;20033;-71
2023/02/01 00:28:15;;;;;;;32.03;15.63;;;5.50;99.90;;;;;;5021524;28;20516;-67
2023/02/01 00:30:41;;;;;;;32.50;15.07;;;5.40;99.90;;;;;;5030063;28;20041;-66
2023/02/01 00:33:06;;;;;;;31.07;14.80;;;5.30;99.90;;;;;;5030484;28;20036;-73
2023/02/01 00:35:34;;;;;;;25.97;13.97;;;5.40;99.90;;;;;;5030021;28;20137;-66
2023/02/01 00:38:00;;;;;;;31.33;15.80;;;5.40;99.90;;;;;;5030268;28;20029;-71
2023/02/01 00:40:26;;;;;;;37.25;15.73;;;5.40;99.90;;;;;;5029729;28;20048;-69
2023/02/01 00:42:52;;;;;;;27.75;12.95;;;5.40;99.90;;;;;;5019040;28;20525;-66
2023/02/01 00:45:18;;;;;;;28.23;13.53;;;5.50;99.90;;;;;;5011008;28;20037;-67
2023/02/01 00:47:43;;;;;;;29.05;13.75;;;5.40;99.90;;;;;;5010400;28;20490;-66
2023/02/01 00:50:09;;;;;;;31.83;14.63;;;5.40;99.90;;;;;;5010039;28;20152;-66
2023/02/01 00:52:35;;;;;;;27.52;13.00;;;5.40;99.90;;;;;;5010213;28;20490;-67
2023/02/01 00:55:01;;;;;;;27.67;14.00;;;5.40;99.90;;;;;;5010303;28;20036;-67
2023/02/01 00:57:26;;;;;;;34.77;14.67;;;5.50;99.90;;;;;;5010581;28;20040;-67
2023/02/01 00:59:52;;;;;;;35.87;14.67;;;5.40;99.90;;;;;;4992709;28;20117;-69
2023/02/01 01:02:17;;;;;;;29.93;14.23;;;5.40;99.90;;;;;;5010821;28;20483;-66
2023/02/01 01:04:43;;;;;;;37.03;15.63;;;5.30;99.90;;;;;;5010391;28;20034;-66
2023/02/01 01:07:09;;;;;;;29.23;14.93;;;5.30;99.90;;;;;;5010311;28;20030;-66
2023/02/01 01:09:34;;;;;;;32.00;15.80;;;5.30;99.90;;;;;;5010208;28;20541;-67
2023/02/01 01:12:02;;;;;;;27.17;13.37;;;5.30;99.90;;;;;;5009796;28;20639;-69
2023/02/01 01:14:29;;;;;;;29.20;13.60;;;5.40;99.90;;;;;;5010200;28;20030;-67
2023/02/01 01:16:54;;;;;;;;;;;5.40;99.90;;;;;;4992596;28;20658;-66
2023/02/01 01:19:20;;;;;;;36.40;14.75;;;5.30;99.90;;;;;;5010670;28;19913;-66
2023/02/01 01:21:45;;;;;;;24.27;13.65;;;5.30;99.90;;;;;;5010040;28;20076;-67
2023/02/01 01:24:11;;;;;;;26.90;12.67;;;5.20;99.90;;;;;;5009702;28;20439;-66
2023/02/01 01:26:37;;;;;;;24.17;13.07;;;5.30;99.90;;;;;;5009694;28;20037;-66
2023/02/01 01:29:03;;;;;;;33.17;13.73;;;5.20;99.90;;;;;;5009855;28;20028;-66
2023/02/01 01:31:29;;;;;;;29.73;15.18;;;5.20;99.90;;;;;;5009493;28;20493;-66
2023/02/01 01:33:57;;;;;;;29.60;13.68;;;5.20;99.90;;;;;;4991863;28;20457;-66
2023/02/01 01:36:25;;;;;;;25.92;14.23;;;5.10;99.90;;;;;;5009348;28;20040;-68
2023/02/01 01:38:50;;;;;;;26.23;14.80;;;5.00;99.90;;;;;;5009715;28;20042;-68
2023/02/01 01:41:19;;;;;;;36.83;15.30;;;5.00;99.90;;;;;;5008835;28;20087;-70
2023/02/01 01:44:29;;;;;;;32.40;15.63;;;5.00;99.90;;;;;;5009534;28;20070;-72
2023/02/01 01:46:55;;;;;;;29.48;15.50;;;5.00;99.90;;;;;;5009424;28;20033;-67
2023/02/01 01:49:23;;;;;;;38.60;16.20;;;4.90;99.90;;;;;;5009478;28;20080;-66
2023/02/01 01:52:01;;;;;;;36.10;17.23;;;4.90;99.90;;;;;;5009313;28;20038;-67
2023/02/01 01:54:34;;;;;;;33.83;16.23;;;4.80;99.90;;;;;;5008994;28;20048;-70
2023/02/01 01:57:11;;;;;;;35.40;17.05;;;4.80;99.90;;;;;;5009249;28;20502;-66
2023/02/01 01:59:39;;;;;;;31.13;15.75;;;4.80;99.90;;;;;;4992165;28;20482;-70
2023/02/01 02:02:05;;;;;;;33.70;15.85;;;4.80;99.90;;;;;;5009102;28;20033;-72
2023/02/01 02:04:32;;;;;;;36.17;17.03;;;4.80;99.90;;;;;;5008863;28;20133;-70
2023/02/01 02:07:14;;;;;;;34.60;17.27;;;4.80;99.90;;;;;;5009063;28;20026;-66
2023/02/01 02:09:42;;;;;;;31.27;15.75;;;4.80;99.90;;;;;;5009006;28;20041;-66
2023/02/01 02:12:08;;;;;;;31.33;16.75;;;4.70;99.90;;;;;;5008297;28;20034;-67
2023/02/01 02:14:34;;;;;;;38.45;16.45;;;4.70;99.90;;;;;;5008384;28;20708;-67
2023/02/01 02:17:25;;;;;;;30.13;14.65;;;4.70;99.90;;;;;;5008286;28;20041;-66
2023/02/01 02:19:59;;;;;;;32.50;15.52;;;4.70;99.90;;;;;;5008364;28;20422;-66
2023/02/01 02:23:12;;;;;;;37.20;16.88;;;4.60;99.90;;;;;;5007937;28;20552;-67
2023/02/01 02:25:56;;;;;;;35.45;16.10;;;4.60;99.90;;;;;;4934594;28;20038;-66
2023/02/01 02:28:50;;;;;;;31.02;15.57;;;4.70;99.90;;;;;;5008205;28;20034;-66
2023/02/01 02:31:25;;;;;;;32.85;15.98;;;4.60;99.90;;;;;;5007752;28;20084;-72
2023/02/01 02:34:05;;;;;;;33.75;15.60;;;4.60;99.90;;;;;;4990481;28;20072;-68
2023/02/01 02:36:50;;;;;;;34.45;16.25;;;4.60;99.90;;;;;;5014367;28;20083;-67
2023/02/01 02:39:28;;;;;;;30.10;14.82;;;4.50;99.90;;;;;;5023138;28;20033;-67
2023/02/01 02:48:11;;;;;;;39.55;17.02;;;4.40;99.90;;;;;;5009105;28;20052;-66
2023/02/01 03:04:40;;;;;;;29.00;16.30;;;4.20;99.90;;;;;;5007707;28;20037;-66
2023/02/01 03:07:32;;;;;;;32.38;16.98;;;4.20;99.90;;;;;;5007883;28;20032;-67
2023/02/01 03:10:03;;;;;;;30.80;15.57;;;4.30;99.90;;;;;;5007746;28;20040;-66
2023/02/01 03:15:22;;;;;;;27.58;15.07;;;4.30;99.90;;;;;;5018304;28;20060;-66
2023/02/01 03:17:50;;;;;;;33.13;15.20;;;4.30;99.90;;;;;;5017826;28;20061;-66
2023/02/01 03:20:19;;;;;;;29.05;13.70;;;4.40;99.90;;;;;;5008973;28;20513;-69
2023/02/01 03:22:47;;;;;;;25.10;14.18;;;4.40;99.90;;;;;;5020026;28;20026;-68
2023/02/01 03:25:15;;;;;;;30.13;13.82;;;4.40;99.90;;;;;;5017034;28;20387;-68
2023/02/01 03:28:01;;;;;;;25.27;13.38;;;4.50;99.90;;;;;;5017815;28;20425;-65
2023/02/01 03:30:32;;;;;;;26.60;12.98;;;4.40;99.90;;;;;;5018419;28;20033;-69
2023/02/01 03:33:02;;;;;;;25.42;14.10;;;4.50;99.90;;;;;;5020708;28;20052;-67
2023/02/01 03:35:40;;;;;;;23.05;12.65;;;4.50;99.90;;;;;;5014386;28;20175;-66
2023/02/01 03:38:24;;;;;;;26.33;12.98;;;4.50;99.90;;;;;;5017537;28;20042;-66
2023/02/01 03:41:22;;;;;;;24.17;13.07;;;4.50;99.90;;;;;;5018168;28;20049;-66
2023/02/01 03:43:57;;;;;;;20.02;12.30;;;4.50;99.90;;;;;;4984448;28;20042;-66
2023/02/01 03:46:33;;;;;;;28.60;13.27;;;4.60;99.90;;;;;;5025730;28;20044;-67
2023/02/01 03:49:03;;;;;;;24.23;12.45;;;4.70;99.90;;;;;;5025989;28;20493;-68
2023/02/01 03:51:30;;;;;;;21.30;12.10;;;4.80;99.90;;;;;;5025800;28;20045;-68
2023/02/01 03:53:57;;;;;;;26.35;12.32;;;4.80;99.90;;;;;;5026153;28;20022;-69
2023/02/01 03:56:24;;;;;;;;;;;4.90;99.90;;;;;;5024466;28;20056;-68
2023/02/01 03:59:00;;;;;;;19.60;11.27;;;4.70;99.90;;;;;;5025650;28;19913;-66
2023/02/01 04:01:28;;;;;;;23.15;12.70;;;4.70;99.90;;;;;;5026383;28;20115;-70
2023/02/01 04:03:53;;;;;;;25.02;12.82;;;4.70;99.90;;;;;;5028232;28;20033;-65
2023/02/01 04:06:19;;;;;;;28.08;14.05;;;4.80;99.90;;;;;;5029268;28;20060;-65
2023/02/01 04:08:45;;;;;;;23.70;13.27;;;4.90;99.90;;;;;;5028394;28;20076;-66
2023/02/01 04:11:10;;;;;;;24.20;12.37;;;4.90;99.90;;;;;;5029703;28;20387;-65
2023/02/01 04:13:36;;;;;;;25.60;13.23;;;4.80;99.90;;;;;;5011923;28;20032;-68
2023/02/01 04:16:01;;;;;;;28.20;13.50;;;4.80;99.90;;;;;;5029408;28;20034;-72
2023/02/01 04:18:27;;;;;;;24.03;13.67;;;4.70;99.90;;;;;;5029658;28;20440;-69
2023/02/01 04:20:52;;;;;;;22.67;12.17;;;4.80;99.90;;;;;;5029805;28;20501;-65
2023/02/01 04:23:18;;;;;;;23.60;13.80;;;4.80;99.90;;;;;;5029501;28;20029;-65
2023/02/01 04:25:43;;;;;;;26.93;12.93;;;4.80;99.90;;;;;;5029360;28;20030;-65
2023/02/01 04:28:09;;;;;;;25.67;12.27;;;4.80;99.90;;;;;;5029731;28;20082;-66
2023/02/01 04:30:35;;;;;;;23.60;12.70;;;4.80;99.90;;;;;;5029109;28;20481;-66
2023/02/01 04:33:03;;;;;;;23.07;13.40;;;4.90;99.90;;;;;;5029380;28;20048;-66
2023/02/01 04:35:28;;;;;;;26.40;13.55;;;4.90;99.90;;;;;;5029229;28;20033;-66
2023/02/01 04:37:54;;;;;;;22.77;13.60;;;4.90;99.90;;;;;;5029319;28;20560;-65
2023/02/01 04:40:20;;;;;;;26.30;13.20;;;4.80;99.90;;;;;;5029251;28;20106;-67
2023/02/01 04:42:45;;;;;;;28.30;13.03;;;4.70;99.90;;;;;;5029554;28;20029;-68
2023/02/01 04:45:11;;;;;;;28.87;14.23;;;4.80;99.90;;;;;;5029251;28;20040;-73
2023/02/01 04:47:36;;;;;;;27.77;13.43;;;4.80;99.90;;;;;;5028546;28;20029;-70
2023/02/01 04:50:02;;;;;;;27.53;14.33;;;4.80;99.90;;;;;;5009627;28;20091;-66
2023/02/01 04:52:28;;;;;;;28.37;14.63;;;4.90;99.90;;;;;;5027863;28;20045;-67
2023/02/01 04:54:57;;;;;;;27.97;12.93;;;4.90;99.90;;;;;;5028992;28;20363;-65
2023/02/01 04:57:22;;;;;;;27.60;14.05;;;4.90;99.90;;;;;;5028792;28;20108;-65
2023/02/01 04:59:48;;;;;;;25.38;13.07;;;4.90;99.90;;;;;;5028634;28;20148;-65
2023/02/01 05:02:14;;;;;;;26.57;13.17;;;4.90;99.90;;;;;;5011096;28;20440;-67
2023/02/01 05:04:39;;;;;;;23.93;13.03;;;4.90;99.90;;;;;;5012135;28;20247;-66
2023/02/01 05:07:05;;;;;;;22.40;12.50;;;4.90;99.90;;;;;;5030012;28;20018;-68
2023/02/01 05:09:30;;;;;;;21.87;12.60;;;4.90;99.90;;;;;;5030068;28;20033;-66
2023/02/01 05:14:40;;;;;;;25.38;13.43;;;4.90;99.90;;;;;;5019697;28;20045;-71
2023/02/01 05:17:05;;;;;;;31.67;13.87;;;4.90;99.90;;;;;;5029574;28;20037;-71
2023/02/01 05:19:31;;;;;;;24.90;13.40;;;4.90;99.90;;;;;;5029446;28;20030;-68
2023/02/01 05:21:57;;;;;;;25.73;13.73;;;4.90;99.90;;;;;;5029172;28;20291;-67
2023/02/01 05:24:22;;;;;;;25.80;13.17;;;4.80;99.90;;;;;;5028747;28;20022;-74
2023/02/01 05:26:49;;;;;;;26.50;13.87;;;4.80;99.90;;;;;;5024343;28;20038;-65
2023/02/01 05:29:15;;;;;;;24.40;12.77;;;4.90;99.90;;;;;;5028856;28;20034;-67
2023/02/01 05:31:41;;;;;;;28.60;14.10;;;4.90;99.90;;;;;;5028206;28;20050;-71
2023/02/01 05:34:07;;;;;;;28.42;13.60;;;4.90;99.90;;;;;;5028283;28;20034;-72
2023/02/01 05:36:33;;;;;;;28.02;13.82;;;5.00;99.90;;;;;;5028139;28;20041;-71
2023/02/01 05:38:58;;;;;;;32.55;14.75;;;5.00;99.90;;;;;;5028220;28;20104;-68
2023/02/01 05:41:24;;;;;;;23.87;12.43;;;5.00;99.90;;;;;;5017246;28;20050;-75
2023/02/01 05:43:50;;;;;;;24.13;13.02;;;5.00;99.90;;;;;;5019171;28;20120;-68
2023/02/01 05:46:16;;;;;;;30.45;14.65;;;5.00;99.90;;;;;;5016153;28;20030;-71
2023/02/01 05:48:42;;;;;;;30.57;14.63;;;5.00;99.90;;;;;;5026932;28;20478;-78
2023/02/01 05:51:08;;;;;;;27.30;13.43;;;4.90;99.90;;;;;;5021972;28;20049;-66
2023/02/01 05:53:34;;;;;;;;;;;5.00;99.90;;;;;;5021977;28;20025;-70
2023/02/01 05:56:00;;;;;;;24.05;12.88;;;5.00;99.90;;;;;;5026057;28;19924;-74
2023/02/01 05:58:26;;;;;;;22.60;12.10;;;5.00;99.90;;;;;;5021227;28;20040;-66
2023/02/01 06:00:51;;;;;;;30.05;13.52;;;5.10;99.90;;;;;;5017683;28;20731;-66
2023/02/01 06:03:17;;;;;;;26.47;14.57;;;5.00;99.90;;;;;;5009605;28;20435;-66
2023/02/01 06:05:47;;;;;;;31.13;16.00;;;5.00;99.90;;;;;;5015412;28;20112;-68
2023/02/01 06:08:13;;;;;;;30.52;14.48;;;5.00;99.90;;;;;;5017249;28;20797;-66
2023/02/01 06:10:39;;;;;;;39.15;19.13;;;5.00;99.90;;;;;;5013872;28;20045;-66
2023/02/01 06:13:05;;;;;;;33.85;14.63;;;5.00;99.90;;;;;;5018213;28;20052;-66
2023/02/01 06:15:32;;;;;;;29.63;15.52;;;4.90;99.90;;;;;;5021991;28;20100;-66
2023/02/01 06:17:57;;;;;;;;;;;4.90;99.90;;;;;;5018274;28;20033;-66
2023/02/01 06:20:23;;;;;;;27.25;15.43;;;5.00;99.90;;;;;;5013266;28;20568;-67
2023/02/01 06:22:48;;;;;;;30.97;14.33;;;5.00;99.90;;;;;;5019422;28;20033;-68
2023/02/01 06:25:14;;;;;;;30.73;14.80;;;5.00;99.90;;;;;;5019346;28;20112;-66
2023/02/01 06:27:39;;;;;;;30.17;15.20;;;5.00;99.90;;;;;;5017661;28;20064;-71
2023/02/01 06:30:06;;;;;;;30.40;13.37;;;5.00;99.90;;;;;;5016988;28;20101;-71
2023/02/01 06:32:32;;;;;;;27.05;14.40;;;5.00;99.90;;;;;;5017169;28;20037;-66
2023/02/01 06:34:59;;;;;;;33.58;15.27;;;5.00;99.90;;;;;;5018768;28;20036;-72
2023/02/01 06:37:25;;;;;;;29.98;14.73;;;5.00;99.90;;;;;;5026319;28;20095;-68
2023/02/01 06:39:51;;;;;;;28.10;14.25;;;5.10;99.90;;;;;;5022392;28;20026;-66
2023/02/01 06:42:17;;;;;;;34.40;15.60;;;5.10;99.90;;;;;;5014466;28;20022;-65
2023/02/01 06:44:42;;;;;;;26.85;13.85;;;5.20;99.90;;;;;;5018566;28;20133;-65
2023/02/01 06:47:08;;;;;;;25.60;14.77;;;5.10;99.90;;;;;;5020622;28;20054;-65
2023/02/01 06:49:34;;;;;;;24.90;13.50;;;5.20;99.90;;;;;;5021238;28;20025;-68
2023/02/01 06:52:00;;;;;;;27.17;14.60;;;5.10;99.90;;;;;;5016936;28;20053;-66
2023/02/01 06:54:26;;;;;;;27.30;13.60;;;5.10;99.90;;;;;;5018554;28;20022;-68
2023/02/01 06:56:52;;;;;;;26.58;14.57;;;5.20;99.90;;;;;;5016924;28;20033;-67
2023/02/01 06:59:18;;;;;;;35.30;15.73;;;5.20;99.90;;;;;;5022976;28;20041;-70
2023/02/01 07:01:43;;;;;;;33.50;15.50;;;5.10;99.90;;;;;;5020621;28;20110;-68
2023/02/01 07:04:12;;;;;;;33.37;15.93;;;5.10;99.90;;;;;;5021743;28;20029;-68
2023/02/01 07:06:39;;;;;;;36.15;15.80;;;5.10;99.90;;;;;;5007392;28;20040;-69
2023/02/01 07:09:04;;;;;;;;;;;5.10;99.90;;;;;;5017887;28;20018;-66
2023/02/01 07:11:30;;;;;;;27.50;14.55;;;5.10;99.90;;;;;;5017794;28;20320;-67
2023/02/01 07:13:56;;;;;;;33.23;18.07;;;5.20;99.90;;;;;;5024621;28;20061;-69
2023/02/01 07:16:22;;;;;;;42.20;15.40;;;5.10;99.90;;;;;;5016375;28;22060;-65
2023/02/01 07:18:49;;;;;;;43.97;16.45;;;5.20;99.90;;;;;;5018406;28;20036;-67
2023/02/01 07:21:15;;;;;;;32.60;17.27;;;5.20;99.90;;;;;;5022254;28;20041;-65
2023/02/01 07:23:41;;;;;;;36.03;17.80;;;5.20;99.90;;;;;;5017748;28;20083;-67
2023/02/01 07:26:09;;;;;;;33.80;17.70;;;5.10;99.90;;;;;;5019569;28;20029;-67
2023/02/01 07:28:35;;;;;;;37.97;18.48;;;5.10;99.90;;;;;;5017406;28;20025;-67
2023/02/01 07:31:22;;;;;;;32.97;18.70;;;5.20;99.90;;;;;;5018111;28;20049;-68
2023/02/01 07:33:51;;;;;;;46.80;22.83;;;5.20;99.90;;;;;;5018238;28;20038;-66
2023/02/01 07:36:18;;;;;;;47.25;21.98;;;5.30;99.90;;;;;;5017682;28;20033;-67
2023/02/01 07:38:43;;;;;;;;;;;5.30;99.90;;;;;;5022632;28;20025;-65
2023/02/01 07:41:10;;;;;;;33.65;18.20;;;5.30;99.90;;;;;;5027216;28;19924;-66
2023/02/01 07:43:35;;;;;;;43.13;18.60;;;5.30;99.90;;;;;;5028819;28;20507;-68
2023/02/01 07:46:03;;;;;;;35.80;19.52;;;5.30;99.90;;;;;;5024120;28;20922;-69
2023/02/01 07:48:28;;;;;;;34.05;18.92;;;5.20;99.90;;;;;;5029244;28;20033;-68
2023/02/01 07:50:58;;;;;;;40.40;23.50;;;5.30;99.90;;;;;;5026519;28;20029;-66
2023/02/01 07:53:24;;;;;;;34.25;19.80;;;5.30;99.90;;;;;;5025147;28;20382;-68
2023/02/01 07:55:49;;;;;;;36.97;20.47;;;5.30;99.90;;;;;;5028297;28;20037;-66
2023/02/01 07:58:15;;;;;;;32.97;18.67;;;5.40;99.90;;;;;;5031030;28;20040;-71
2023/02/01 08:03:24;;;;;;;38.25;18.95;;;5.40;99.90;;;;;;5027278;28;20083;-71
2023/02/01 08:05:59;;;;;;;36.90;18.47;;;5.40;99.90;;;;;;5026987;28;20049;-67
2023/02/01 08:08:25;;;;;;;34.30;17.55;;;5.50;99.90;;;;;;5028019;28;20029;-67
2023/02/01 08:10:50;;;;;;;38.67;22.07;;;5.50;99.90;;;;;;5023073;28;20558;-66
2023/02/01 08:13:16;;;;;;;38.97;19.10;;;5.60;99.90;;;;;;5025860;28;20056;-65
2023/02/01 08:15:42;;;;;;;32.50;19.27;;;5.70;99.90;;;;;;5029763;28;20080;-67
2023/02/01 08:18:09;;;;;;;38.57;19.63;;;5.90;99.90;;;;;;5031871;28;20406;-69
2023/02/01 08:20:35;;;;;;;41.05;20.30;;;5.90;99.90;;;;;;5010437;28;20298;-68
2023/02/01 08:23:01;;;;;;;37.50;19.35;;;5.70;99.90;;;;;;5032741;28;20029;-70
2023/02/01 08:25:27;;;;;;;39.55;17.98;;;5.70;99.90;;;;;;5010277;28;20037;-68
2023/02/01 08:27:54;;;;;;;63.77;20.97;;;5.70;99.90;;;;;;5030594;28;20025;-67
2023/02/01 08:30:20;;;;;;;33.67;18.38;;;5.60;99.90;;;;;;5030981;28;20033;-67
2023/02/01 08:32:45;;;;;;;40.45;19.70;;;5.80;99.90;;;;;;5031276;28;20037;-67
2023/02/01 08:35:11;;;;;;;37.87;17.73;;;6.00;99.90;;;;;;5032128;28;20041;-67
2023/02/01 08:37:37;;;;;;;37.67;18.60;;;6.70;99.90;;;;;;5013163;28;20078;-69
2023/02/01 08:40:04;;;;;;;35.57;18.10;;;8.00;99.90;;;;;;5030076;28;20116;-70
2023/02/01 08:45:13;;;;;;;32.03;14.57;;;7.20;99.90;;;;;;5021138;28;21159;-69
2023/02/01 08:47:39;;;;;;;29.37;16.20;;;7.00;99.90;;;;;;5022229;28;20061;-70
2023/02/01 08:50:05;;;;;;;28.37;16.30;;;6.80;99.90;;;;;;5019350;28;20034;-69
2023/02/01 08:52:31;;;;;;;34.45;17.88;;;6.70;99.90;;;;;;5020592;28;20059;-66
2023/02/01 08:54:56;;;;;;;30.90;17.27;;;6.70;99.90;;;;;;5018349;28;20489;-67
2023/02/01 08:57:22;;;;;;;32.17;16.00;;;6.60;99.90;;;;;;5017450;28;20042;-68
2023/02/01 08:59:48;;;;;;;35.78;16.35;;;6.50;99.90;;;;;;5006747;28;20076;-66
2023/02/01 09:02:15;;;;;;;23.37;14.00;;;6.40;99.90;;;;;;5020815;28;20833;-68
2023/02/01 09:04:41;;;;;;;30.80;16.15;;;6.30;99.90;;;;;;5022047;28;20028;-67
2023/02/01 09:07:08;;;;;;;23.37;13.43;;;6.40;99.90;;;;;;5022301;28;20033;-68
2023/02/01 09:09:34;;;;;;;25.63;14.73;;;6.50;99.90;;;;;;5023628;28;20032;-66
2023/02/01 09:12:00;;;;;;;27.42;15.68;;;6.60;99.90;;;;;;5004778;28;20180;-68
2023/02/01 09:14:25;;;;;;;24.90;13.90;;;6.80;99.90;;;;;;5021320;28;20034;-65
2023/02/01 09:16:51;;;;;;;23.33;13.97;;;6.80;99.90;;;;;;5023624;28;20052;-68
2023/02/01 09:19:16;;;;;;;36.97;15.83;;;6.90;99.90;;;;;;5018943;28;20060;-67
2023/02/01 09:21:42;;;;;;;25.33;15.57;;;6.90;99.90;;;;;;5026193;28;20091;-66
2023/02/01 09:24:10;;;;;;;24.83;14.00;;;6.80;99.90;;;;;;5021866;28;20026;-70
2023/02/01 09:26:36;;;;;;;24.67;13.98;;;6.90;99.90;;;;;;5025120;28;20294;-69
2023/02/01 09:29:03;;;;;;;26.08;16.05;;;6.80;99.90;;;;;;5024116;28;20450;-72
2023/02/01 09:31:30;;;;;;;35.28;20.67;;;6.90;99.90;;;;;;5021603;28;20128;-70
2023/02/01 09:33:56;;;;;;;;;;;6.90;99.90;;;;;;5024222;28;20022;-67
2023/02/01 09:36:21;;;;;;;30.17;14.60;;;7.00;99.90;;;;;;5002418;28;20290;-70
2023/02/01 09:38:47;;;;;;;32.10;13.80;;;7.00;99.90;;;;;;5020410;28;20064;-68
2023/02/01 09:41:48;;;;;;;36.97;19.13;;;7.00;99.90;;;;;;5014543;28;20476;-73
2023/02/01 09:44:42;;;;;;;29.75;17.75;;;7.00;99.90;;;;;;5023072;28;20401;-66
2023/02/01 09:47:15;;;;;;;26.08;13.05;;;7.00;99.90;;;;;;5001668;28;20560;-66
2023/02/01 09:49:51;;;;;;;24.17;13.52;;;7.00;99.90;;;;;;5019346;28;20483;-67
2023/02/01 09:52:19;;;;;;;27.95;15.02;;;7.00;99.90;;;;;;5017145;28;20044;-65
2023/02/01 09:54:58;;;;;;;18.75;11.93;;;7.00;99.90;;;;;;5014728;28;20045;-69
2023/02/01 09:57:31;;;;;;;25.88;13.90;;;6.80;99.90;;;;;;5021303;28;20100;-65
2023/02/01 10:00:04;;;;;;;28.30;13.52;;;6.80;99.90;;;;;;5018711;28;20028;-72
2023/02/01 10:02:31;;;;;;;22.15;12.40;;;6.80;99.90;;;;;;5023701;28;20056;-66
2023/02/01 10:05:00;;;;;;;19.35;11.05;;;6.90;99.90;;;;;;5019379;28;20100;-69
2023/02/01 10:07:41;;;;;;;20.08;10.85;;;6.90;99.90;;;;;;5025640;28;20036;-69
2023/02/01 10:10:14;;;;;;;25.85;11.38;;;6.90;99.90;;;;;;5017939;28;20033;-70
2023/02/01 10:12:59;;;;;;;27.08;11.88;;;6.90;99.90;;;;;;5018069;28;20052;-70
2023/02/01 10:15:35;;;;;;;18.55;11.27;;;7.00;99.90;;;;;;5019590;28;20625;-68
2023/02/01 10:18:43;;;;;;;22.60;12.07;;;7.00;99.90;;;;;;5017058;28;20033;-67
2023/02/01 10:21:38;;;;;;;16.17;10.00;;;7.00;99.90;;;;;;4985907;28;20096;-70
2023/02/01 10:24:23;;;;;;;54.95;24.10;;;7.10;99.90;;;;;;5015354;28;20140;-68
2023/02/01 10:27:00;;;;;;;72.47;26.95;;;7.20;99.90;;;;;;5022755;28;20037;-69
2023/02/01 10:29:40;;;;;;;309.63;113.10;;;7.20;99.90;;;;;;5013391;28;20486;-66
2023/02/01 10:32:19;;;;;;;77.80;33.88;;;7.20;99.90;;;;;;5022255;28;20604;-66
2023/02/01 10:34:51;;;;;;;62.50;27.92;;;7.20;99.90;;;;;;5013471;28;20038;-66
2023/02/01 10:37:32;;;;;;;24.35;12.10;;;7.30;99.90;;;;;;5019145;28;20033;-66
2023/02/01 10:40:15;;;;;;;24.70;12.70;;;7.20;99.90;;;;;;5016187;28;20029;-67
2023/02/01 10:42:40;;;;;;;23.08;11.50;;;7.30;99.90;;;;;;5020753;28;20429;-68
2023/02/01 10:45:13;;;;;;;23.60;11.00;;;7.30;99.90;;;;;;5023858;28;20026;-68
2023/02/01 10:47:38;;;;;;;19.80;11.68;;;7.30;99.90;;;;;;5023251;28;20057;-66
2023/02/01 10:50:09;;;;;;;20.97;11.27;;;7.30;99.90;;;;;;5016354;28;20064;-67
2023/02/01 10:52:56;;;;;;;21.27;11.18;;;7.30;99.90;;;;;;5018042;28;20034;-67
2023/02/01 10:55:43;;;;;;;25.30;11.65;;;7.30;99.90;;;;;;5014710;28;20104;-67
2023/02/01 10:58:17;;;;;;;19.20;10.68;;;7.40;99.90;;;;;;5019292;28;20092;-68
2023/02/01 11:00:46;;;;;;;20.05;10.90;;;7.40;99.90;;;;;;5016598;28;20029;-72
2023/02/01 11:03:36;;;;;;;25.63;12.77;;;7.60;99.90;;;;;;5020802;28;20842;-68
2023/02/01 11:06:19;;;;;;;26.10;11.95;;;7.70;99.90;;;;;;5018568;28;20075;-67
2023/02/01 11:08:52;;;;;;;21.83;9.55;;;7.70;99.90;;;;;;5015335;28;20029;-66
2023/02/01 11:11:21;;;;;;;19.75;8.32;;;7.80;99.90;;;;;;5006918;28;20756;-68
2023/02/01 11:13:56;;;;;;;15.32;6.85;;;8.10;99.90;;;;;;5015551;28;20037;-67
2023/02/01 11:16:36;;;;;;;12.73;6.50;;;8.20;99.90;;;;;;5017140;28;20041;-67
2023/02/01 11:19:02;;;;;;;11.05;5.97;;;8.50;99.90;;;;;;5016761;28;20104;-69
2023/02/01 11:21:28;;;;;;;;;;;8.80;99.90;;;;;;5001253;28;20041;-69
2023/02/01 11:23:54;;;;;;;13.25;5.57;;;8.90;99.90;;;;;;5018523;28;19913;-66
2023/02/01 11:26:23;;;;;;;18.45;8.82;;;9.10;99.90;;;;;;5017803;28;20029;-69
2023/02/01 11:29:11;;;;;;;12.90;5.32;;;9.20;99.90;;;;;;5017583;28;20029;-68
2023/02/01 11:31:38;;;;;;;14.02;6.65;;;8.90;99.90;;;;;;5017057;28;20053;-72
2023/02/01 11:34:08;;;;;;;11.40;6.10;;;8.90;99.90;;;;;;5015343;28;20566;-67
2023/02/01 11:36:36;;;;;;;23.67;10.98;;;8.80;99.90;;;;;;5008620;28;20568;-66
2023/02/01 11:39:10;;;;;;;13.70;6.20;;;9.30;99.90;;;;;;5018205;28;20037;-67
2023/02/01 11:41:55;;;;;;;11.13;4.30;;;9.40;99.90;;;;;;5022346;28;20034;-68
2023/02/01 11:44:45;;;;;;;11.40;4.72;;;9.30;99.90;;;;;;5018660;28;20017;-67
2023/02/01 11:47:31;;;;;;;9.55;4.78;;;9.20;99.90;;;;;;5023963;28;20504;-68
2023/02/01 11:50:04;;;;;;;11.75;5.03;;;9.40;99.90;;;;;;5018193;28;20029;-68
2023/02/01 11:52:37;;;;;;;18.13;5.47;;;9.70;99.90;;;;;;5019353;28;20041;-69
2023/02/01 11:55:22;;;;;;;10.73;5.00;;;9.70;99.90;;;;;;5019705;28;20025;-67
2023/02/01 11:58:04;;;;;;;21.58;9.85;;;9.30;99.80;;;;;;5018779;28;20131;-68
2023/02/01 12:00:33;;;;;;;13.30;5.20;;;9.50;99.90;;;;;;5023633;28;20029;-68
2023/02/01 12:03:42;;;;;;;9.95;4.35;;;9.50;99.90;;;;;;4998927;28;20396;-68
2023/02/01 12:06:43;;;;;;;7.70;4.50;;;9.40;99.90;;;;;;5020796;28;20034;-69
2023/02/01 12:09:33;;;;;;;11.32;5.22;;;9.20;99.90;;;;;;5005638;28;20033;-67
2023/02/01 12:12:21;;;;;;;18.95;5.78;;;9.20;99.90;;;;;;5019724;28;20125;-66
2023/02/01 12:14:57;;;;;;;20.20;7.72;;;8.90;99.90;;;;;;5016384;28;20061;-67
2023/02/01 12:17:51;;;;;;;25.13;10.65;;;8.90;99.90;;;;;;5022603;28;20040;-70
2023/02/01 12:20:39;;;;;;;11.98;5.10;;;8.80;99.90;;;;;;5018143;28;20030;-66
2023/02/01 12:23:05;;;;;;;12.48;7.53;;;8.80;99.90;;;;;;5022810;28;20071;-71
2023/02/01 12:25:52;;;;;;;21.00;10.00;;;8.60;99.90;;;;;;5027307;28;20492;-69
2023/02/01 12:28:47;;;;;;;15.70;7.72;;;8.80;99.90;;;;;;5028216;28;20472;-66
2023/02/01 12:31:23;;;;;;;19.02;7.45;;;8.70;99.90;;;;;;5028870;28;20124;-66
2023/02/01 12:34:18;;;;;;;19.45;10.30;;;8.60;99.90;;;;;;5028492;28;20116;-67
2023/02/01 12:36:47;;;;;;;15.40;7.68;;;8.70;99.90;;;;;;5028650;28;20056;-67
2023/02/01 12:39:24;;;;;;;14.65;6.20;;;8.70;99.90;;;;;;5028248;28;20499;-66
2023/02/01 12:41:53;;;;;;;13.25;6.05;;;8.70;99.90;;;;;;5019648;28;20033;-66
2023/02/01 12:44:21;;;;;;;22.05;6.75;;;8.80;99.90;;;;;;5020140;28;20037;-68
2023/02/01 12:46:59;;;;;;;15.35;7.13;;;8.70;99.90;;;;;;5018342;28;20026;-67
2023/02/01 12:49:52;;;;;;;10.68;5.57;;;8.80;99.90;;;;;;5009811;28;20022;-66
2023/02/01 12:52:28;;;;;;;9.85;5.05;;;8.80;99.90;;;;;;5004044;28;20083;-66
2023/02/01 12:55:02;;;;;;;11.40;4.27;;;8.70;99.90;;;;;;5025218;28;20130;-67
2023/02/01 12:57:32;;;;;;;10.30;4.80;;;8.60;99.90;;;;;;5024388;28;20052;-67
2023/02/01 13:00:21;;;;;;;12.00;3.92;;;8.70;99.90;;;;;;5018839;28;20041;-67
2023/02/01 13:03:03;;;;;;;9.27;3.72;;;8.80;99.90;;;;;;5018206;28;20028;-69
2023/02/01 13:05:43;;;;;;;11.45;4.05;;;8.80;99.90;;;;;;5007916;28;20084;-69
2023/02/01 13:08:13;;;;;;;9.70;4.53;;;8.70;99.90;;;;;;5022925;28;20025;-68
2023/02/01 13:10:53;;;;;;;7.72;3.78;;;8.60;99.90;;;;;;5020259;28;20043;-66
2023/02/01 13:13:21;;;;;;;6.53;3.65;;;8.60;99.90;;;;;;5018196;28;20489;-68
2023/02/01 13:16:26;;;;;;;7.18;3.40;;;8.70;99.90;;;;;;5019529;28;20026;-66
2023/02/01 13:19:17;;;;;;;10.32;3.05;;;8.90;99.90;;;;;;5024206;28;20120;-70
2023/02/01 13:21:49;;;;;;;7.22;3.70;;;8.90;99.90;;;;;;4987107;28;20116;-66
2023/02/01 13:24:30;;;;;;;10.45;3.63;;;8.90;99.90;;;;;;5022582;28;20041;-68
2023/02/01 13:26:56;;;;;;;11.80;4.05;;;8.60;99.90;;;;;;5020063;28;20038;-67
2023/02/01 13:29:24;;;;;;;13.02;3.97;;;8.50;99.90;;;;;;5022911;28;20030;-66
2023/02/01 13:31:50;;;;;;;14.43;4.07;;;8.40;99.90;;;;;;5019611;28;20037;-66